createdAt,value
2022-10-17T00:04:47.877Z,27.25
2022-10-17T00:10:58.858Z,32.23
2022-10-17T00:17:00.857Z,25.45
2022-10-17T00:23:02.889Z,30.10
2022-10-17T00:29:05.076Z,24.97
2022-10-17T00:35:08.088Z,25.37
2022-10-17T00:41:13.163Z,25.73
2022-10-17T00:47:19.758Z,21.60
2022-10-17T00:53:22.040Z,26.95
2022-10-17T00:59:25.204Z,22.58
2022-10-17T01:05:27.272Z,23.63
2022-10-17T01:11:30.643Z,25.50
2022-10-17T01:17:41.432Z,20.48
2022-10-17T01:24:17.383Z,24.55
2022-10-17T01:30:50.017Z,19.13
2022-10-17T01:36:59.661Z,24.13
2022-10-17T01:43:25.098Z,24.30
2022-10-17T01:49:31.520Z,18.45
2022-10-17T01:55:37.971Z,19.60
2022-10-17T02:01:42.512Z,23.00
2022-10-17T02:07:44.643Z,21.83
2022-10-17T02:14:07.773Z,11.50
2022-10-17T02:20:30.848Z,14.45
2022-10-17T02:26:45.952Z,19.27
2022-10-17T02:33:14.021Z,20.58
2022-10-17T02:39:17.259Z,15.25
2022-10-17T02:45:20.152Z,18.42
2022-10-17T02:57:51.413Z,16.98
2022-10-17T03:04:06.012Z,25.80
2022-10-17T03:10:08.694Z,20.05
2022-10-17T03:16:11.868Z,13.38
2022-10-17T03:28:19.479Z,18.83
2022-10-17T03:34:22.006Z,17.70
2022-10-17T03:46:26.499Z,19.35
2022-10-17T03:52:30.272Z,22.55
2022-10-17T03:58:33.427Z,21.15
2022-10-17T04:10:38.557Z,28.33
2022-10-17T04:16:40.642Z,19.87
2022-10-17T04:22:48.514Z,18.40
2022-10-17T04:28:51.379Z,17.80
2022-10-17T04:41:04.736Z,24.98
2022-10-17T04:47:08.470Z,21.17
2022-10-17T04:53:10.924Z,26.65
2022-10-17T04:59:13.100Z,21.30
2022-10-17T05:05:16.621Z,24.58
2022-10-17T05:11:26.728Z,24.13
2022-10-17T05:17:28.865Z,24.00
2022-10-17T05:23:31.065Z,35.67
2022-10-17T05:29:35.075Z,32.60
2022-10-17T05:35:45.009Z,34.33
2022-10-17T05:41:47.241Z,33.37
2022-10-17T05:47:49.452Z,28.30
2022-10-17T05:53:52.210Z,47.63
2022-10-17T05:59:59.446Z,30.33
2022-10-17T06:06:14.973Z,29.23
2022-10-17T06:12:19.466Z,21.60
2022-10-17T06:18:22.431Z,19.45
2022-10-17T06:24:24.605Z,20.52
2022-10-17T06:30:28.226Z,18.13
2022-10-17T06:36:30.520Z,19.50
2022-10-17T06:42:33.858Z,24.60
2022-10-17T06:48:59.198Z,19.63
2022-10-17T06:55:31.703Z,23.95
2022-10-17T07:01:55.698Z,22.63
2022-10-17T07:07:59.699Z,37.15
2022-10-17T07:14:02.394Z,25.35
2022-10-17T07:20:04.608Z,19.38
2022-10-17T07:26:11.734Z,18.88
2022-10-17T07:32:14.971Z,16.88
2022-10-17T07:38:17.568Z,14.25
2022-10-17T07:44:19.899Z,17.35
2022-10-17T07:50:25.472Z,16.48
2022-10-17T07:56:27.500Z,17.88
2022-10-17T08:02:29.575Z,16.65
2022-10-17T08:08:32.161Z,18.20
2022-10-17T08:14:34.319Z,19.75
2022-10-17T08:20:37.191Z,21.67
2022-10-17T08:26:42.446Z,12.70
2022-10-17T08:32:46.146Z,21.55
2022-10-17T08:45:16.600Z,13.57
2022-10-17T08:51:27.965Z,18.65
2022-10-17T08:57:30.583Z,11.52
2022-10-17T09:03:50.591Z,15.25
2022-10-17T09:10:13.145Z,17.80
2022-10-17T09:16:31.164Z,19.90
2022-10-17T09:23:02.436Z,11.02
2022-10-17T09:29:16.294Z,28.25
2022-10-17T09:35:19.429Z,13.45
2022-10-17T09:41:44.830Z,17.38
2022-10-17T09:48:01.874Z,11.80
2022-10-17T09:54:09.289Z,17.20
2022-10-17T10:00:22.050Z,22.33
2022-10-17T10:06:23.995Z,20.00
2022-10-17T10:13:02.377Z,22.37
2022-10-17T10:19:21.947Z,10.63
2022-10-17T10:25:24.033Z,21.95
2022-10-17T10:31:35.508Z,18.95
2022-10-17T10:37:42.193Z,14.43
2022-10-17T10:43:48.055Z,17.35
2022-10-17T10:50:08.383Z,20.98
2022-10-17T10:56:21.411Z,18.15
2022-10-17T11:02:43.418Z,15.70
2022-10-17T11:08:51.489Z,16.52
2022-10-17T11:15:21.187Z,11.13
2022-10-17T11:21:58.462Z,9.52
2022-10-17T11:28:04.880Z,16.17
2022-10-17T11:34:29.668Z,13.48
2022-10-17T11:40:35.599Z,11.52
2022-10-17T11:46:39.611Z,14.45
2022-10-17T11:53:02.949Z,15.20
2022-10-17T11:59:42.520Z,15.30
2022-10-17T12:05:57.674Z,12.20
2022-10-17T12:12:02.508Z,17.98
2022-10-17T12:18:05.252Z,19.45
2022-10-17T12:30:25.705Z,26.33
2022-10-17T12:36:27.788Z,15.77
2022-10-17T12:42:31.299Z,17.48
2022-10-17T12:48:42.396Z,23.33
2022-10-17T12:55:12.997Z,19.30
2022-10-17T13:01:31.682Z,40.85
2022-10-17T13:07:35.165Z,14.60
2022-10-17T13:13:44.967Z,9.65
2022-10-17T13:19:47.550Z,13.52
2022-10-17T13:32:06.044Z,15.15
2022-10-17T13:38:08.232Z,16.15
2022-10-17T13:44:21.267Z,22.40
2022-10-17T13:56:46.540Z,12.30
2022-10-17T14:02:49.047Z,20.92
2022-10-17T14:09:00.982Z,17.20
2022-10-17T14:15:11.902Z,13.75
2022-10-17T14:21:44.398Z,10.90
2022-10-17T14:28:02.932Z,15.02
2022-10-17T14:34:05.753Z,24.08
2022-10-17T14:40:08.459Z,17.42
2022-10-17T14:46:17.039Z,14.13
2022-10-17T14:52:19.226Z,14.38
2022-10-17T14:58:29.526Z,11.68
2022-10-17T15:04:31.565Z,26.52
2022-10-17T15:10:36.019Z,13.47
2022-10-17T15:16:39.644Z,15.73
2022-10-17T15:22:41.666Z,25.02
2022-10-17T15:28:44.503Z,18.60
2022-10-17T15:34:49.875Z,28.35
2022-10-17T15:40:52.222Z,24.13
2022-10-17T15:46:55.907Z,22.35
2022-10-17T15:52:58.087Z,25.88
2022-10-17T15:59:12.953Z,21.65
2022-10-17T16:05:19.119Z,29.23
2022-10-17T16:11:32.231Z,27.35
2022-10-17T16:23:36.080Z,38.95
2022-10-17T16:29:38.011Z,20.93
2022-10-17T16:35:40.196Z,33.00
2022-10-17T16:41:42.265Z,34.03
2022-10-17T16:47:44.259Z,33.30
2022-10-17T16:53:50.219Z,44.23
2022-10-17T16:59:52.917Z,41.15
2022-10-17T17:05:55.022Z,29.45
2022-10-17T17:11:57.211Z,37.33
2022-10-17T17:18:04.114Z,63.40
2022-10-17T17:24:07.713Z,33.17
2022-10-17T17:30:10.261Z,34.13
2022-10-17T17:36:17.391Z,40.83
2022-10-17T17:42:20.169Z,46.00
2022-10-17T17:48:22.417Z,38.20
2022-10-17T17:54:24.414Z,62.10
2022-10-17T18:00:26.675Z,44.93
2022-10-17T18:06:29.342Z,56.17
2022-10-17T18:12:32.476Z,37.05
2022-10-17T18:18:34.663Z,51.97
2022-10-17T18:24:36.871Z,54.50
2022-10-17T18:30:39.237Z,57.77
2022-10-17T18:36:41.370Z,53.20
2022-10-17T18:42:43.513Z,46.13
2022-10-17T18:48:46.880Z,39.47
2022-10-17T18:54:49.431Z,56.72
2022-10-17T19:00:51.783Z,49.38
2022-10-17T19:06:53.973Z,51.85
2022-10-17T19:12:55.972Z,31.13
2022-10-17T19:19:04.586Z,50.87
2022-10-17T19:25:06.972Z,47.22
2022-10-17T19:31:09.977Z,59.70
2022-10-17T19:37:14.532Z,59.55
2022-10-17T19:43:17.034Z,50.70
2022-10-17T19:49:19.334Z,51.05
2022-10-17T19:55:22.138Z,63.45
2022-10-17T20:07:27.777Z,49.00
2022-10-17T20:13:30.107Z,47.43
2022-10-17T20:19:32.676Z,72.55
2022-10-17T20:25:38.368Z,43.67
2022-10-17T20:31:42.508Z,44.58
2022-10-17T20:37:44.578Z,50.15
2022-10-17T20:43:46.806Z,62.63
2022-10-17T20:49:49.035Z,40.67
2022-10-17T20:56:05.034Z,37.38
2022-10-17T21:02:07.862Z,62.03
2022-10-17T21:14:12.626Z,41.20
2022-10-17T21:20:14.797Z,58.22
2022-10-17T21:26:18.362Z,69.00
2022-10-17T21:32:33.349Z,64.22
2022-10-17T21:38:43.492Z,44.72
2022-10-17T21:44:45.460Z,67.80
2022-10-17T21:50:47.558Z,57.53
2022-10-17T21:56:50.482Z,47.23
2022-10-17T22:02:52.685Z,44.83
2022-10-17T22:08:55.400Z,67.87
2022-10-17T22:14:57.541Z,78.55
2022-10-17T22:21:04.873Z,65.37
2022-10-17T22:27:06.870Z,45.53
2022-10-17T22:33:09.082Z,49.40
2022-10-17T22:39:12.080Z,56.40
2022-10-17T22:45:14.265Z,46.67
2022-10-17T22:51:17.823Z,58.08
2022-10-17T22:57:20.125Z,49.08
2022-10-17T23:03:23.350Z,46.33
2022-10-17T23:15:51.845Z,48.03
2022-10-17T23:21:54.017Z,58.13
2022-10-17T23:27:56.066Z,61.40
2022-10-17T23:33:59.009Z,53.57
2022-10-17T23:40:01.639Z,43.13
2022-10-17T23:46:05.429Z,46.72
2022-10-17T23:52:07.829Z,59.75
2022-10-17T23:58:10.087Z,55.97
